sensor_id;sensor_type;location;lat;lon;timestamp;P1;durP1;ratioP1;P2;durP2;ratioP2
16181;SDS011;8197;51.664;7.114;2024-02-04T00:02:22;45.60;;;19.33;;
16181;SDS011;8197;51.664;7.114;2024-02-04T00:07:26;39.97;;;17.37;;
16181;SDS011;8197;51.664;7.114;2024-02-04T00:12:30;36.70;;;15.33;;
16181;SDS011;8197;51.664;7.114;2024-02-04T00:17:36;43.57;;;21.23;;
16181;SDS011;8197;51.664;7.114;2024-02-04T00:22:39;29.10;;;10.50;;
16181;SDS011;8197;51.664;7.114;2024-02-04T00:27:43;34.07;;;12.53;;
16181;SDS011;8197;51.664;7.114;2024-02-04T00:32:49;46.87;;;16.90;;
16181;SDS011;8197;51.664;7.114;2024-02-04T00:37:52;44.27;;;18.00;;
16181;SDS011;8197;51.664;7.114;2024-02-04T00:42:56;28.17;;;12.57;;
16181;SDS011;8197;51.664;7.114;2024-02-04T00:47:59;31.87;;;14.30;;
16181;SDS011;8197;51.664;7.114;2024-02-04T00:53:02;30.40;;;13.00;;
16181;SDS011;8197;51.664;7.114;2024-02-04T00:58:07;31.40;;;13.83;;
16181;SDS011;8197;51.664;7.114;2024-02-04T01:03:10;24.73;;;11.47;;
16181;SDS011;8197;51.664;7.114;2024-02-04T01:08:13;26.90;;;10.43;;
16181;SDS011;8197;51.664;7.114;2024-02-04T01:13:17;21.73;;;8.47;;
16181;SDS011;8197;51.664;7.114;2024-02-04T01:18:20;23.40;;;8.50;;
16181;SDS011;8197;51.664;7.114;2024-02-04T01:23:23;19.57;;;7.40;;
16181;SDS011;8197;51.664;7.114;2024-02-04T01:28:27;18.40;;;3.53;;
16181;SDS011;8197;51.664;7.114;2024-02-04T01:33:30;17.83;;;5.83;;
16181;SDS011;8197;51.664;7.114;2024-02-04T01:38:33;17.67;;;5.10;;
16181;SDS011;8197;51.664;7.114;2024-02-04T01:43:38;17.07;;;5.07;;
16181;SDS011;8197;51.664;7.114;2024-02-04T01:48:41;17.50;;;5.83;;
16181;SDS011;8197;51.664;7.114;2024-02-04T01:53:44;18.60;;;6.00;;
16181;SDS011;8197;51.664;7.114;2024-02-04T01:58:50;19.73;;;7.00;;
16181;SDS011;8197;51.664;7.114;2024-02-04T02:03:53;20.27;;;8.10;;
16181;SDS011;8197;51.664;7.114;2024-02-04T02:08:56;22.77;;;9.23;;
16181;SDS011;8197;51.664;7.114;2024-02-04T02:14:05;23.13;;;7.13;;
16181;SDS011;8197;51.664;7.114;2024-02-04T02:19:17;24.13;;;10.47;;
16181;SDS011;8197;51.664;7.114;2024-02-04T02:24:35;27.80;;;9.67;;
16181;SDS011;8197;51.664;7.114;2024-02-04T02:29:40;23.80;;;10.37;;
16181;SDS011;8197;51.664;7.114;2024-02-04T02:34:43;26.50;;;11.07;;
16181;SDS011;8197;51.664;7.114;2024-02-04T02:39:48;29.80;;;12.83;;
16181;SDS011;8197;51.664;7.114;2024-02-04T02:44:56;27.50;;;13.30;;
16181;SDS011;8197;51.664;7.114;2024-02-04T02:50:00;23.07;;;6.70;;
16181;SDS011;8197;51.664;7.114;2024-02-04T02:55:06;35.20;;;16.73;;
16181;SDS011;8197;51.664;7.114;2024-02-04T03:00:09;37.10;;;17.00;;
16181;SDS011;8197;51.664;7.114;2024-02-04T03:05:14;40.10;;;16.80;;
16181;SDS011;8197;51.664;7.114;2024-02-04T03:10:19;44.10;;;13.20;;
16181;SDS011;8197;51.664;7.114;2024-02-04T03:15:22;37.03;;;17.50;;
16181;SDS011;8197;51.664;7.114;2024-02-04T03:20:25;47.53;;;19.17;;
16181;SDS011;8197;51.664;7.114;2024-02-04T03:25:29;36.73;;;16.90;;
16181;SDS011;8197;51.664;7.114;2024-02-04T03:30:32;24.47;;;10.67;;
16181;SDS011;8197;51.664;7.114;2024-02-04T03:35:35;43.20;;;17.57;;
16181;SDS011;8197;51.664;7.114;2024-02-04T03:40:39;44.97;;;18.40;;
16181;SDS011;8197;51.664;7.114;2024-02-04T03:45:44;40.53;;;16.53;;
16181;SDS011;8197;51.664;7.114;2024-02-04T03:50:47;37.87;;;17.60;;
16181;SDS011;8197;51.664;7.114;2024-02-04T03:55:51;44.50;;;20.10;;
16181;SDS011;8197;51.664;7.114;2024-02-04T04:00:54;39.63;;;19.80;;
16181;SDS011;8197;51.664;7.114;2024-02-04T04:05:57;49.27;;;21.07;;
16181;SDS011;8197;51.664;7.114;2024-02-04T04:11:01;48.80;;;21.60;;
16181;SDS011;8197;51.664;7.114;2024-02-04T04:16:05;60.57;;;24.77;;
16181;SDS011;8197;51.664;7.114;2024-02-04T04:21:08;54.47;;;23.63;;
16181;SDS011;8197;51.664;7.114;2024-02-04T04:26:13;49.50;;;21.10;;
16181;SDS011;8197;51.664;7.114;2024-02-04T04:31:16;58.97;;;24.93;;
16181;SDS011;8197;51.664;7.114;2024-02-04T04:36:18;51.13;;;21.30;;
16181;SDS011;8197;51.664;7.114;2024-02-04T04:41:23;54.43;;;21.93;;
16181;SDS011;8197;51.664;7.114;2024-02-04T04:46:26;43.50;;;16.63;;
16181;SDS011;8197;51.664;7.114;2024-02-04T04:51:28;64.77;;;26.13;;
16181;SDS011;8197;51.664;7.114;2024-02-04T04:56:38;31.93;;;11.70;;
16181;SDS011;8197;51.664;7.114;2024-02-04T05:01:46;52.03;;;26.53;;
16181;SDS011;8197;51.664;7.114;2024-02-04T05:06:50;27.13;;;9.60;;
16181;SDS011;8197;51.664;7.114;2024-02-04T05:11:54;48.93;;;24.03;;
16181;SDS011;8197;51.664;7.114;2024-02-04T05:16:57;48.23;;;22.27;;
16181;SDS011;8197;51.664;7.114;2024-02-04T05:22:00;53.97;;;23.00;;
16181;SDS011;8197;51.664;7.114;2024-02-04T05:27:04;45.90;;;16.30;;
16181;SDS011;8197;51.664;7.114;2024-02-04T05:32:07;48.90;;;21.40;;
16181;SDS011;8197;51.664;7.114;2024-02-04T05:37:10;56.93;;;24.17;;
16181;SDS011;8197;51.664;7.114;2024-02-04T05:42:15;42.40;;;16.03;;
16181;SDS011;8197;51.664;7.114;2024-02-04T05:47:18;56.87;;;25.50;;
16181;SDS011;8197;51.664;7.114;2024-02-04T05:52:21;51.23;;;25.50;;
16181;SDS011;8197;51.664;7.114;2024-02-04T05:57:25;62.23;;;25.20;;
16181;SDS011;8197;51.664;7.114;2024-02-04T06:02:28;66.07;;;22.10;;
16181;SDS011;8197;51.664;7.114;2024-02-04T06:07:31;47.37;;;23.00;;
16181;SDS011;8197;51.664;7.114;2024-02-04T06:12:35;51.10;;;20.97;;
16181;SDS011;8197;51.664;7.114;2024-02-04T06:17:42;38.10;;;12.97;;
16181;SDS011;8197;51.664;7.114;2024-02-04T06:22:45;42.30;;;19.37;;
16181;SDS011;8197;51.664;7.114;2024-02-04T06:27:49;37.47;;;18.07;;
16181;SDS011;8197;51.664;7.114;2024-02-04T06:32:53;44.33;;;18.10;;
16181;SDS011;8197;51.664;7.114;2024-02-04T06:37:58;39.67;;;18.70;;
16181;SDS011;8197;51.664;7.114;2024-02-04T06:43:03;34.50;;;13.43;;
16181;SDS011;8197;51.664;7.114;2024-02-04T06:48:07;40.80;;;18.93;;
16181;SDS011;8197;51.664;7.114;2024-02-04T06:53:11;46.63;;;19.27;;
16181;SDS011;8197;51.664;7.114;2024-02-04T06:58:15;42.83;;;19.93;;
16181;SDS011;8197;51.664;7.114;2024-02-04T07:03:18;42.43;;;19.87;;
16181;SDS011;8197;51.664;7.114;2024-02-04T07:08:21;50.83;;;19.67;;
16181;SDS011;8197;51.664;7.114;2024-02-04T07:13:25;39.57;;;17.20;;
16181;SDS011;8197;51.664;7.114;2024-02-04T07:18:28;38.70;;;16.10;;
16181;SDS011;8197;51.664;7.114;2024-02-04T07:23:32;32.40;;;14.80;;
16181;SDS011;8197;51.664;7.114;2024-02-04T07:28:36;34.83;;;15.70;;
16181;SDS011;8197;51.664;7.114;2024-02-04T07:33:39;41.50;;;16.20;;
16181;SDS011;8197;51.664;7.114;2024-02-04T07:38:42;35.90;;;16.60;;
16181;SDS011;8197;51.664;7.114;2024-02-04T07:43:46;37.00;;;14.67;;
16181;SDS011;8197;51.664;7.114;2024-02-04T07:48:50;32.30;;;14.10;;
16181;SDS011;8197;51.664;7.114;2024-02-04T07:53:53;31.47;;;12.87;;
16181;SDS011;8197;51.664;7.114;2024-02-04T07:58:57;31.07;;;10.90;;
16181;SDS011;8197;51.664;7.114;2024-02-04T08:04:00;39.43;;;14.70;;
16181;SDS011;8197;51.664;7.114;2024-02-04T08:09:04;38.50;;;17.23;;
16181;SDS011;8197;51.664;7.114;2024-02-04T08:14:09;40.60;;;14.83;;
16181;SDS011;8197;51.664;7.114;2024-02-04T08:19:11;44.40;;;15.10;;
16181;SDS011;8197;51.664;7.114;2024-02-04T08:24:15;29.93;;;10.47;;
16181;SDS011;8197;51.664;7.114;2024-02-04T08:29:19;38.47;;;16.40;;
16181;SDS011;8197;51.664;7.114;2024-02-04T08:34:22;26.40;;;12.40;;
16181;SDS011;8197;51.664;7.114;2024-02-04T08:39:27;27.73;;;10.77;;
16181;SDS011;8197;51.664;7.114;2024-02-04T08:44:32;26.50;;;8.80;;
16181;SDS011;8197;51.664;7.114;2024-02-04T08:49:40;24.03;;;8.97;;
16181;SDS011;8197;51.664;7.114;2024-02-04T08:54:43;27.00;;;8.30;;
16181;SDS011;8197;51.664;7.114;2024-02-04T08:59:47;21.37;;;6.83;;
16181;SDS011;8197;51.664;7.114;2024-02-04T09:04:50;24.03;;;7.33;;
16181;SDS011;8197;51.664;7.114;2024-02-04T09:09:54;18.53;;;5.33;;
16181;SDS011;8197;51.664;7.114;2024-02-04T09:14:58;20.50;;;5.90;;
16181;SDS011;8197;51.664;7.114;2024-02-04T09:20:01;18.27;;;5.40;;
16181;SDS011;8197;51.664;7.114;2024-02-04T09:25:06;15.53;;;3.37;;
16181;SDS011;8197;51.664;7.114;2024-02-04T09:30:11;21.20;;;5.00;;
16181;SDS011;8197;51.664;7.114;2024-02-04T09:35:15;21.30;;;3.20;;
16181;SDS011;8197;51.664;7.114;2024-02-04T09:40:18;17.20;;;4.63;;
16181;SDS011;8197;51.664;7.114;2024-02-04T09:45:23;15.97;;;4.00;;
16181;SDS011;8197;51.664;7.114;2024-02-04T09:50:26;16.30;;;4.07;;
16181;SDS011;8197;51.664;7.114;2024-02-04T09:55:30;15.30;;;3.47;;
16181;SDS011;8197;51.664;7.114;2024-02-04T10:00:35;18.00;;;3.80;;
16181;SDS011;8197;51.664;7.114;2024-02-04T10:05:42;16.33;;;3.80;;
16181;SDS011;8197;51.664;7.114;2024-02-04T10:10:45;17.60;;;3.67;;
16181;SDS011;8197;51.664;7.114;2024-02-04T10:15:50;16.17;;;3.77;;
16181;SDS011;8197;51.664;7.114;2024-02-04T10:20:53;17.50;;;3.90;;
16181;SDS011;8197;51.664;7.114;2024-02-04T10:25:57;15.53;;;3.00;;
16181;SDS011;8197;51.664;7.114;2024-02-04T10:31:07;19.40;;;3.80;;
16181;SDS011;8197;51.664;7.114;2024-02-04T10:36:12;18.97;;;5.20;;
16181;SDS011;8197;51.664;7.114;2024-02-04T10:41:15;21.13;;;5.00;;
16181;SDS011;8197;51.664;7.114;2024-02-04T10:46:22;18.40;;;5.27;;
16181;SDS011;8197;51.664;7.114;2024-02-04T10:51:27;20.57;;;7.20;;
16181;SDS011;8197;51.664;7.114;2024-02-04T10:56:34;25.00;;;10.37;;
16181;SDS011;8197;51.664;7.114;2024-02-04T11:01:41;26.23;;;10.00;;
16181;SDS011;8197;51.664;7.114;2024-02-04T11:06:44;25.80;;;11.10;;
16181;SDS011;8197;51.664;7.114;2024-02-04T11:11:48;27.10;;;10.90;;
16181;SDS011;8197;51.664;7.114;2024-02-04T11:17:09;25.97;;;10.13;;
16181;SDS011;8197;51.664;7.114;2024-02-04T11:22:34;28.73;;;11.10;;
16181;SDS011;8197;51.664;7.114;2024-02-04T11:28:05;22.93;;;7.17;;
16181;SDS011;8197;51.664;7.114;2024-02-04T11:33:10;20.03;;;6.90;;
16181;SDS011;8197;51.664;7.114;2024-02-04T11:38:16;20.47;;;5.53;;
16181;SDS011;8197;51.664;7.114;2024-02-04T11:43:22;19.97;;;6.80;;
16181;SDS011;8197;51.664;7.114;2024-02-04T11:48:30;22.17;;;6.40;;
16181;SDS011;8197;51.664;7.114;2024-02-04T11:53:35;18.20;;;5.57;;
16181;SDS011;8197;51.664;7.114;2024-02-04T11:58:39;17.70;;;4.10;;
16181;SDS011;8197;51.664;7.114;2024-02-04T12:03:43;16.23;;;3.20;;
16181;SDS011;8197;51.664;7.114;2024-02-04T12:08:47;16.10;;;2.67;;
16181;SDS011;8197;51.664;7.114;2024-02-04T12:13:50;13.03;;;1.40;;
16181;SDS011;8197;51.664;7.114;2024-02-04T12:18:55;14.97;;;2.00;;
16181;SDS011;8197;51.664;7.114;2024-02-04T12:23:58;15.37;;;2.27;;
16181;SDS011;8197;51.664;7.114;2024-02-04T12:29:02;16.30;;;1.90;;
16181;SDS011;8197;51.664;7.114;2024-02-04T12:34:07;12.50;;;1.60;;
16181;SDS011;8197;51.664;7.114;2024-02-04T12:39:12;13.80;;;2.60;;
16181;SDS011;8197;51.664;7.114;2024-02-04T12:44:17;13.97;;;3.10;;
16181;SDS011;8197;51.664;7.114;2024-02-04T12:49:22;15.57;;;4.03;;
16181;SDS011;8197;51.664;7.114;2024-02-04T12:54:26;16.07;;;4.43;;
16181;SDS011;8197;51.664;7.114;2024-02-04T12:59:29;15.23;;;3.80;;
16181;SDS011;8197;51.664;7.114;2024-02-04T13:04:36;13.73;;;1.83;;
16181;SDS011;8197;51.664;7.114;2024-02-04T13:09:40;39.27;;;11.30;;
16181;SDS011;8197;51.664;7.114;2024-02-04T13:14:43;15.70;;;3.57;;
16181;SDS011;8197;51.664;7.114;2024-02-04T13:19:49;16.20;;;4.60;;
16181;SDS011;8197;51.664;7.114;2024-02-04T13:24:52;16.20;;;4.20;;
16181;SDS011;8197;51.664;7.114;2024-02-04T13:29:55;15.37;;;4.17;;
16181;SDS011;8197;51.664;7.114;2024-02-04T13:34:59;18.23;;;5.20;;
16181;SDS011;8197;51.664;7.114;2024-02-04T13:40:16;17.70;;;4.83;;
16181;SDS011;8197;51.664;7.114;2024-02-04T13:45:20;18.23;;;6.00;;
16181;SDS011;8197;51.664;7.114;2024-02-04T13:50:25;18.60;;;5.87;;
16181;SDS011;8197;51.664;7.114;2024-02-04T13:55:28;17.80;;;5.77;;
16181;SDS011;8197;51.664;7.114;2024-02-04T14:00:31;18.80;;;6.30;;
16181;SDS011;8197;51.664;7.114;2024-02-04T14:05:36;17.80;;;5.90;;
16181;SDS011;8197;51.664;7.114;2024-02-04T14:10:40;18.73;;;6.10;;
16181;SDS011;8197;51.664;7.114;2024-02-04T14:15:43;19.23;;;6.40;;
16181;SDS011;8197;51.664;7.114;2024-02-04T14:20:48;17.20;;;5.50;;
16181;SDS011;8197;51.664;7.114;2024-02-04T14:25:50;17.63;;;5.90;;
16181;SDS011;8197;51.664;7.114;2024-02-04T14:30:54;18.73;;;6.30;;
16181;SDS011;8197;51.664;7.114;2024-02-04T14:36:00;18.13;;;6.53;;
16181;SDS011;8197;51.664;7.114;2024-02-04T14:41:03;22.40;;;7.90;;
16181;SDS011;8197;51.664;7.114;2024-02-04T14:46:06;24.37;;;4.60;;
16181;SDS011;8197;51.664;7.114;2024-02-04T14:51:12;16.30;;;4.27;;
16181;SDS011;8197;51.664;7.114;2024-02-04T14:56:15;19.63;;;6.40;;
16181;SDS011;8197;51.664;7.114;2024-02-04T15:01:18;19.30;;;4.70;;
16181;SDS011;8197;51.664;7.114;2024-02-04T15:06:23;22.27;;;4.93;;
16181;SDS011;8197;51.664;7.114;2024-02-04T15:11:27;18.20;;;4.83;;
16181;SDS011;8197;51.664;7.114;2024-02-04T15:16:31;18.73;;;4.47;;
16181;SDS011;8197;51.664;7.114;2024-02-04T15:21:37;20.20;;;6.30;;
16181;SDS011;8197;51.664;7.114;2024-02-04T15:26:40;17.50;;;5.97;;
16181;SDS011;8197;51.664;7.114;2024-02-04T15:31:45;22.00;;;6.77;;
16181;SDS011;8197;51.664;7.114;2024-02-04T15:36:51;24.40;;;6.50;;
16181;SDS011;8197;51.664;7.114;2024-02-04T15:41:55;23.40;;;6.77;;
16181;SDS011;8197;51.664;7.114;2024-02-04T15:46:57;21.80;;;6.33;;
16181;SDS011;8197;51.664;7.114;2024-02-04T15:52:05;17.20;;;3.70;;
16181;SDS011;8197;51.664;7.114;2024-02-04T15:57:09;22.13;;;8.60;;
16181;SDS011;8197;51.664;7.114;2024-02-04T16:02:14;23.83;;;10.50;;
16181;SDS011;8197;51.664;7.114;2024-02-04T16:07:19;25.60;;;12.73;;
16181;SDS011;8197;51.664;7.114;2024-02-04T16:12:23;30.33;;;13.10;;
16181;SDS011;8197;51.664;7.114;2024-02-04T16:17:31;29.37;;;12.00;;
16181;SDS011;8197;51.664;7.114;2024-02-04T16:22:36;32.27;;;13.97;;
16181;SDS011;8197;51.664;7.114;2024-02-04T16:27:39;30.60;;;14.23;;
16181;SDS011;8197;51.664;7.114;2024-02-04T16:32:45;21.47;;;7.60;;
16181;SDS011;8197;51.664;7.114;2024-02-04T16:37:50;33.10;;;14.07;;
16181;SDS011;8197;51.664;7.114;2024-02-04T16:42:53;34.60;;;16.10;;
16181;SDS011;8197;51.664;7.114;2024-02-04T16:47:56;31.50;;;14.63;;
16181;SDS011;8197;51.664;7.114;2024-02-04T16:53:01;28.70;;;11.83;;
16181;SDS011;8197;51.664;7.114;2024-02-04T16:58:04;29.57;;;14.00;;
16181;SDS011;8197;51.664;7.114;2024-02-04T17:03:08;32.20;;;10.97;;
16181;SDS011;8197;51.664;7.114;2024-02-04T17:08:14;23.73;;;9.37;;
16181;SDS011;8197;51.664;7.114;2024-02-04T17:13:17;34.83;;;14.57;;
16181;SDS011;8197;51.664;7.114;2024-02-04T17:18:24;29.20;;;12.30;;
16181;SDS011;8197;51.664;7.114;2024-02-04T17:23:34;31.07;;;10.93;;
16181;SDS011;8197;51.664;7.114;2024-02-04T17:28:42;31.23;;;13.30;;
16181;SDS011;8197;51.664;7.114;2024-02-04T17:33:45;28.00;;;11.03;;
16181;SDS011;8197;51.664;7.114;2024-02-04T17:38:51;37.90;;;11.47;;
16181;SDS011;8197;51.664;7.114;2024-02-04T17:43:54;33.53;;;10.93;;
16181;SDS011;8197;51.664;7.114;2024-02-04T17:48:57;23.47;;;10.20;;
16181;SDS011;8197;51.664;7.114;2024-02-04T17:54:02;28.33;;;10.57;;
16181;SDS011;8197;51.664;7.114;2024-02-04T17:59:05;32.37;;;10.43;;
16181;SDS011;8197;51.664;7.114;2024-02-04T18:04:08;35.30;;;11.83;;
16181;SDS011;8197;51.664;7.114;2024-02-04T18:09:14;23.47;;;8.97;;
16181;SDS011;8197;51.664;7.114;2024-02-04T18:14:18;35.30;;;10.60;;
16181;SDS011;8197;51.664;7.114;2024-02-04T18:19:21;30.73;;;10.07;;
16181;SDS011;8197;51.664;7.114;2024-02-04T18:24:25;26.70;;;9.50;;
16181;SDS011;8197;51.664;7.114;2024-02-04T18:29:29;28.10;;;9.17;;
16181;SDS011;8197;51.664;7.114;2024-02-04T18:34:32;29.83;;;8.70;;
16181;SDS011;8197;51.664;7.114;2024-02-04T18:39:36;27.37;;;10.17;;
16181;SDS011;8197;51.664;7.114;2024-02-04T18:44:39;30.23;;;9.23;;
16181;SDS011;8197;51.664;7.114;2024-02-04T18:49:42;38.80;;;10.63;;
16181;SDS011;8197;51.664;7.114;2024-02-04T18:54:48;31.47;;;11.33;;
16181;SDS011;8197;51.664;7.114;2024-02-04T18:59:51;33.13;;;10.83;;
16181;SDS011;8197;51.664;7.114;2024-02-04T19:04:54;33.33;;;11.10;;
16181;SDS011;8197;51.664;7.114;2024-02-04T19:09:59;20.40;;;7.53;;
16181;SDS011;8197;51.664;7.114;2024-02-04T19:15:05;29.80;;;9.67;;
16181;SDS011;8197;51.664;7.114;2024-02-04T19:20:10;27.37;;;9.67;;
16181;SDS011;8197;51.664;7.114;2024-02-04T19:25:15;24.87;;;8.60;;
16181;SDS011;8197;51.664;7.114;2024-02-04T19:30:20;26.97;;;11.07;;
16181;SDS011;8197;51.664;7.114;2024-02-04T19:35:24;25.53;;;8.47;;
16181;SDS011;8197;51.664;7.114;2024-02-04T19:40:31;28.30;;;7.63;;
16181;SDS011;8197;51.664;7.114;2024-02-04T19:45:34;29.50;;;8.70;;
16181;SDS011;8197;51.664;7.114;2024-02-04T19:50:37;31.03;;;8.00;;
16181;SDS011;8197;51.664;7.114;2024-02-04T19:55:41;22.50;;;8.67;;
16181;SDS011;8197;51.664;7.114;2024-02-04T20:00:44;23.00;;;8.37;;
16181;SDS011;8197;51.664;7.114;2024-02-04T20:05:48;18.73;;;6.80;;
16181;SDS011;8197;51.664;7.114;2024-02-04T20:10:52;18.50;;;6.70;;
16181;SDS011;8197;51.664;7.114;2024-02-04T20:15:55;23.03;;;6.00;;
16181;SDS011;8197;51.664;7.114;2024-02-04T20:21:00;26.83;;;7.60;;
16181;SDS011;8197;51.664;7.114;2024-02-04T20:26:05;20.57;;;5.77;;
16181;SDS011;8197;51.664;7.114;2024-02-04T20:31:10;19.20;;;5.90;;
16181;SDS011;8197;51.664;7.114;2024-02-04T20:36:13;19.80;;;6.20;;
16181;SDS011;8197;51.664;7.114;2024-02-04T20:41:19;18.33;;;6.10;;
16181;SDS011;8197;51.664;7.114;2024-02-04T20:46:22;17.20;;;4.40;;
16181;SDS011;8197;51.664;7.114;2024-02-04T20:51:25;20.37;;;6.40;;
16181;SDS011;8197;51.664;7.114;2024-02-04T20:56:32;17.93;;;5.20;;
16181;SDS011;8197;51.664;7.114;2024-02-04T21:01:36;24.40;;;8.47;;
16181;SDS011;8197;51.664;7.114;2024-02-04T21:06:39;21.57;;;9.50;;
16181;SDS011;8197;51.664;7.114;2024-02-04T21:11:44;20.17;;;7.27;;
16181;SDS011;8197;51.664;7.114;2024-02-04T21:16:47;26.10;;;9.30;;
16181;SDS011;8197;51.664;7.114;2024-02-04T21:21:52;24.03;;;9.40;;
16181;SDS011;8197;51.664;7.114;2024-02-04T21:26:56;25.20;;;8.17;;
16181;SDS011;8197;51.664;7.114;2024-02-04T21:32:00;26.60;;;10.40;;
16181;SDS011;8197;51.664;7.114;2024-02-04T21:37:05;25.80;;;7.60;;
16181;SDS011;8197;51.664;7.114;2024-02-04T21:42:09;28.33;;;10.63;;
16181;SDS011;8197;51.664;7.114;2024-02-04T21:47:12;28.97;;;11.40;;
16181;SDS011;8197;51.664;7.114;2024-02-04T21:52:21;26.50;;;10.93;;
16181;SDS011;8197;51.664;7.114;2024-02-04T21:57:25;30.70;;;11.30;;
16181;SDS011;8197;51.664;7.114;2024-02-04T22:02:28;30.70;;;11.80;;
16181;SDS011;8197;51.664;7.114;2024-02-04T22:07:31;32.20;;;11.33;;
16181;SDS011;8197;51.664;7.114;2024-02-04T22:12:36;30.77;;;11.67;;
16181;SDS011;8197;51.664;7.114;2024-02-04T22:17:39;27.70;;;9.17;;
16181;SDS011;8197;51.664;7.114;2024-02-04T22:22:42;29.80;;;10.17;;
16181;SDS011;8197;51.664;7.114;2024-02-04T22:27:46;42.40;;;12.13;;
16181;SDS011;8197;51.664;7.114;2024-02-04T22:32:49;26.87;;;12.50;;
16181;SDS011;8197;51.664;7.114;2024-02-04T22:37:52;28.70;;;9.30;;
16181;SDS011;8197;51.664;7.114;2024-02-04T22:42:57;39.43;;;12.07;;
16181;SDS011;8197;51.664;7.114;2024-02-04T22:48:00;26.87;;;10.83;;
16181;SDS011;8197;51.664;7.114;2024-02-04T22:53:03;34.23;;;9.30;;
16181;SDS011;8197;51.664;7.114;2024-02-04T22:58:08;32.23;;;11.27;;
16181;SDS011;8197;51.664;7.114;2024-02-04T23:03:11;31.77;;;10.90;;
16181;SDS011;8197;51.664;7.114;2024-02-04T23:08:14;21.37;;;7.23;;
16181;SDS011;8197;51.664;7.114;2024-02-04T23:13:18;40.00;;;11.00;;
16181;SDS011;8197;51.664;7.114;2024-02-04T23:18:21;24.10;;;8.53;;
16181;SDS011;8197;51.664;7.114;2024-02-04T23:23:24;31.27;;;10.63;;
16181;SDS011;8197;51.664;7.114;2024-02-04T23:28:29;37.30;;;11.37;;
16181;SDS011;8197;51.664;7.114;2024-02-04T23:33:33;28.33;;;10.47;;
16181;SDS011;8197;51.664;7.114;2024-02-04T23:38:37;29.93;;;10.70;;
16181;SDS011;8197;51.664;7.114;2024-02-04T23:43:42;37.70;;;11.90;;
16181;SDS011;8197;51.664;7.114;2024-02-04T23:48:44;29.27;;;9.07;;
16181;SDS011;8197;51.664;7.114;2024-02-04T23:53:47;49.53;;;11.13;;
16181;SDS011;8197;51.664;7.114;2024-02-04T23:58:52;32.93;;;9.40;;
